Allamuchy, New Jersey
Current Conditions -  °F | °C
As of 1:53 AM on Monday 22 Dec 2014 (Local Time) from KFWN Reporting Station
Overcast Overcast  
Wind Chill: -4°   Ceiling: 1500
Heat Index: -1°   Visibility: 10mi
Dew Point: -3°   Wind: 7mph
Humidity: 82%   Direction: 40°NE
Pressure: 30.32"   Gusts: NA
Location:  40.92°N, 74.81°W
Report Text: KFWN 220653Z AUTO 04006KT 10SM BKN015 OVC029 M01/M03 A3032 RMK AO2 SLP271 T10061033
Loading
Personal Weather Stations






























Interactive Weather Map New forecast layout! Learn more

10-Day Weather Forecast

Advertisements
Track Severe Weather on mobile